East Charleston, Vermont
Current Conditions -  °F | °C
As of 3:15 PM on Thursday 23 Oct 2014 (Local Time) from KEFK Reporting Station
Moderate Rain Moderate Rain  
Wind Chill: 38°   Ceiling: 700
Heat Index: 45°   Visibility: 10mi
Dew Point: 43°   Wind: 15mph
Humidity: 95%   Direction: 350°N
Pressure: 29.91"   Gusts: 20mph
Location:  44.84°N, 71.99°W
Report Text: KEFK 231915Z AUTO 35013G17KT 10SM RA OVC007 07/06 A2991 RMK AO2 T00700062
Loading
Personal Weather Stations






























Interactive Weather Map
Tropical Storm Tracking
New forecast layout! Learn more

10-Day Weather Forecast

Advertisements
Track Severe Weather on mobile